sensor_id;sensor_type;location;lat;lon;timestamp;P1;durP1;ratioP1;P2;durP2;ratioP2
18046;SDS011;9148;51.454;13.862;2022-10-30T00:00:37;8.93;;;6.93;;
18046;SDS011;9148;51.454;13.862;2022-10-30T00:03:03;8.23;;;6.47;;
18046;SDS011;9148;51.454;13.862;2022-10-30T00:05:29;9.93;;;7.53;;
18046;SDS011;9148;51.454;13.862;2022-10-30T00:07:55;14.97;;;9.20;;
18046;SDS011;9148;51.454;13.862;2022-10-30T00:10:21;12.53;;;8.47;;
18046;SDS011;9148;51.454;13.862;2022-10-30T00:12:47;12.57;;;7.53;;
18046;SDS011;9148;51.454;13.862;2022-10-30T00:15:13;14.33;;;8.87;;
18046;SDS011;9148;51.454;13.862;2022-10-30T00:17:39;14.20;;;8.03;;
18046;SDS011;9148;51.454;13.862;2022-10-30T00:20:05;10.13;;;7.17;;
18046;SDS011;9148;51.454;13.862;2022-10-30T00:22:32;9.77;;;6.87;;
18046;SDS011;9148;51.454;13.862;2022-10-30T00:24:59;13.03;;;8.27;;
18046;SDS011;9148;51.454;13.862;2022-10-30T00:27:24;15.10;;;8.30;;
18046;SDS011;9148;51.454;13.862;2022-10-30T00:29:51;13.87;;;9.43;;
18046;SDS011;9148;51.454;13.862;2022-10-30T00:32:17;10.70;;;7.90;;
18046;SDS011;9148;51.454;13.862;2022-10-30T00:34:42;15.97;;;8.60;;
18046;SDS011;9148;51.454;13.862;2022-10-30T00:37:08;17.63;;;9.10;;
18046;SDS011;9148;51.454;13.862;2022-10-30T00:39:34;14.03;;;10.70;;
18046;SDS011;9148;51.454;13.862;2022-10-30T00:42:00;17.10;;;7.87;;
18046;SDS011;9148;51.454;13.862;2022-10-30T00:44:44;10.03;;;6.87;;
18046;SDS011;9148;51.454;13.862;2022-10-30T00:49:53;11.73;;;6.70;;
18046;SDS011;9148;51.454;13.862;2022-10-30T00:52:29;8.80;;;6.47;;
18046;SDS011;9148;51.454;13.862;2022-10-30T00:55:02;10.53;;;6.00;;
18046;SDS011;9148;51.454;13.862;2022-10-30T00:57:40;9.23;;;7.27;;
18046;SDS011;9148;51.454;13.862;2022-10-30T01:00:07;9.50;;;7.30;;
18046;SDS011;9148;51.454;13.862;2022-10-30T01:02:35;10.37;;;6.43;;
18046;SDS011;9148;51.454;13.862;2022-10-30T01:05:02;10.87;;;7.57;;
18046;SDS011;9148;51.454;13.862;2022-10-30T01:07:28;11.23;;;7.00;;
18046;SDS011;9148;51.454;13.862;2022-10-30T01:09:54;12.50;;;8.57;;
18046;SDS011;9148;51.454;13.862;2022-10-30T01:12:20;12.80;;;7.33;;
18046;SDS011;9148;51.454;13.862;2022-10-30T01:14:47;10.33;;;7.80;;
18046;SDS011;9148;51.454;13.862;2022-10-30T01:17:37;18.33;;;8.00;;
18046;SDS011;9148;51.454;13.862;2022-10-30T01:20:18;11.73;;;7.17;;
18046;SDS011;9148;51.454;13.862;2022-10-30T01:23:09;9.57;;;7.10;;
18046;SDS011;9148;51.454;13.862;2022-10-30T01:26:10;11.63;;;7.27;;
18046;SDS011;9148;51.454;13.862;2022-10-30T01:34:42;13.30;;;7.23;;
18046;SDS011;9148;51.454;13.862;2022-10-30T01:37:24;12.27;;;7.97;;
18046;SDS011;9148;51.454;13.862;2022-10-30T01:40:08;10.73;;;7.87;;
18046;SDS011;9148;51.454;13.862;2022-10-30T01:45:14;7.63;;;6.60;;
18046;SDS011;9148;51.454;13.862;2022-10-30T01:48:09;13.13;;;8.17;;
18046;SDS011;9148;51.454;13.862;2022-10-30T01:51:28;9.23;;;6.33;;
18046;SDS011;9148;51.454;13.862;2022-10-30T01:57:12;14.07;;;7.37;;
18046;SDS011;9148;51.454;13.862;2022-10-30T02:00:10;10.50;;;7.73;;
18046;SDS011;9148;51.454;13.862;2022-10-30T02:02:40;9.57;;;6.57;;
18046;SDS011;9148;51.454;13.862;2022-10-30T02:05:06;9.53;;;5.87;;
18046;SDS011;9148;51.454;13.862;2022-10-30T02:07:36;6.50;;;5.30;;
18046;SDS011;9148;51.454;13.862;2022-10-30T02:10:02;8.40;;;5.60;;
18046;SDS011;9148;51.454;13.862;2022-10-30T02:12:29;8.77;;;5.70;;
18046;SDS011;9148;51.454;13.862;2022-10-30T02:14:57;10.87;;;5.33;;
18046;SDS011;9148;51.454;13.862;2022-10-30T02:17:24;5.63;;;4.20;;
18046;SDS011;9148;51.454;13.862;2022-10-30T02:19:52;22.30;;;5.83;;
18046;SDS011;9148;51.454;13.862;2022-10-30T02:22:17;8.23;;;5.87;;
18046;SDS011;9148;51.454;13.862;2022-10-30T02:24:43;5.73;;;5.17;;
18046;SDS011;9148;51.454;13.862;2022-10-30T02:27:09;7.70;;;6.17;;
18046;SDS011;9148;51.454;13.862;2022-10-30T02:29:35;7.67;;;6.13;;
18046;SDS011;9148;51.454;13.862;2022-10-30T02:32:01;6.70;;;6.00;;
18046;SDS011;9148;51.454;13.862;2022-10-30T02:34:27;12.10;;;6.03;;
18046;SDS011;9148;51.454;13.862;2022-10-30T02:36:53;13.33;;;7.67;;
18046;SDS011;9148;51.454;13.862;2022-10-30T02:39:18;12.70;;;6.20;;
18046;SDS011;9148;51.454;13.862;2022-10-30T02:41:45;7.27;;;6.47;;
18046;SDS011;9148;51.454;13.862;2022-10-30T02:44:12;12.37;;;6.97;;
18046;SDS011;9148;51.454;13.862;2022-10-30T02:46:37;9.10;;;7.17;;
18046;SDS011;9148;51.454;13.862;2022-10-30T02:49:03;10.13;;;7.23;;
18046;SDS011;9148;51.454;13.862;2022-10-30T02:51:30;14.70;;;9.87;;
18046;SDS011;9148;51.454;13.862;2022-10-30T02:53:56;12.17;;;10.87;;
18046;SDS011;9148;51.454;13.862;2022-10-30T02:56:23;22.33;;;13.83;;
18046;SDS011;9148;51.454;13.862;2022-10-30T02:58:49;20.00;;;12.87;;
18046;SDS011;9148;51.454;13.862;2022-10-30T03:01:16;19.60;;;12.80;;
18046;SDS011;9148;51.454;13.862;2022-10-30T03:03:44;21.73;;;10.03;;
18046;SDS011;9148;51.454;13.862;2022-10-30T03:06:11;14.67;;;10.07;;
18046;SDS011;9148;51.454;13.862;2022-10-30T03:08:39;16.43;;;11.97;;
18046;SDS011;9148;51.454;13.862;2022-10-30T03:11:10;21.20;;;11.53;;
18046;SDS011;9148;51.454;13.862;2022-10-30T03:13:39;18.93;;;11.10;;
18046;SDS011;9148;51.454;13.862;2022-10-30T03:16:07;21.67;;;11.47;;
18046;SDS011;9148;51.454;13.862;2022-10-30T03:18:39;15.40;;;10.93;;
18046;SDS011;9148;51.454;13.862;2022-10-30T03:21:06;10.60;;;8.20;;
18046;SDS011;9148;51.454;13.862;2022-10-30T03:23:33;17.07;;;10.03;;
18046;SDS011;9148;51.454;13.862;2022-10-30T03:25:59;16.90;;;10.50;;
18046;SDS011;9148;51.454;13.862;2022-10-30T03:28:27;17.77;;;9.80;;
18046;SDS011;9148;51.454;13.862;2022-10-30T03:31:01;16.10;;;9.53;;
18046;SDS011;9148;51.454;13.862;2022-10-30T03:33:33;21.30;;;11.97;;
18046;SDS011;9148;51.454;13.862;2022-10-30T03:36:01;20.40;;;9.03;;
18046;SDS011;9148;51.454;13.862;2022-10-30T03:38:28;18.03;;;8.97;;
18046;SDS011;9148;51.454;13.862;2022-10-30T03:40:54;15.50;;;8.23;;
18046;SDS011;9148;51.454;13.862;2022-10-30T03:43:20;13.20;;;8.23;;
18046;SDS011;9148;51.454;13.862;2022-10-30T03:45:50;15.77;;;7.93;;
18046;SDS011;9148;51.454;13.862;2022-10-30T03:48:20;14.80;;;7.60;;
18046;SDS011;9148;51.454;13.862;2022-10-30T03:50:48;16.13;;;10.00;;
18046;SDS011;9148;51.454;13.862;2022-10-30T03:53:16;17.67;;;11.17;;
18046;SDS011;9148;51.454;13.862;2022-10-30T03:55:42;21.13;;;10.00;;
18046;SDS011;9148;51.454;13.862;2022-10-30T03:58:07;15.23;;;9.10;;
18046;SDS011;9148;51.454;13.862;2022-10-30T04:00:33;19.67;;;10.17;;
18046;SDS011;9148;51.454;13.862;2022-10-30T04:03:00;15.40;;;8.67;;
18046;SDS011;9148;51.454;13.862;2022-10-30T04:05:26;20.27;;;9.33;;
18046;SDS011;9148;51.454;13.862;2022-10-30T04:07:56;13.77;;;9.53;;
18046;SDS011;9148;51.454;13.862;2022-10-30T04:10:25;13.10;;;7.77;;
18046;SDS011;9148;51.454;13.862;2022-10-30T04:12:51;13.93;;;9.27;;
18046;SDS011;9148;51.454;13.862;2022-10-30T04:15:18;14.47;;;9.27;;
18046;SDS011;9148;51.454;13.862;2022-10-30T04:17:48;11.37;;;8.00;;
18046;SDS011;9148;51.454;13.862;2022-10-30T04:20:15;13.87;;;8.80;;
18046;SDS011;9148;51.454;13.862;2022-10-30T04:22:44;11.80;;;8.13;;
18046;SDS011;9148;51.454;13.862;2022-10-30T04:25:10;9.73;;;6.23;;
18046;SDS011;9148;51.454;13.862;2022-10-30T04:27:43;9.63;;;6.90;;
18046;SDS011;9148;51.454;13.862;2022-10-30T04:30:10;18.67;;;7.10;;
18046;SDS011;9148;51.454;13.862;2022-10-30T04:32:50;11.70;;;6.77;;
18046;SDS011;9148;51.454;13.862;2022-10-30T04:35:18;20.10;;;9.10;;
18046;SDS011;9148;51.454;13.862;2022-10-30T04:38:02;13.17;;;9.13;;
18046;SDS011;9148;51.454;13.862;2022-10-30T04:40:35;16.57;;;11.53;;
18046;SDS011;9148;51.454;13.862;2022-10-30T04:43:03;16.33;;;10.60;;
18046;SDS011;9148;51.454;13.862;2022-10-30T04:45:30;16.47;;;10.87;;
18046;SDS011;9148;51.454;13.862;2022-10-30T04:48:00;14.80;;;9.97;;
18046;SDS011;9148;51.454;13.862;2022-10-30T04:50:28;13.87;;;9.07;;
18046;SDS011;9148;51.454;13.862;2022-10-30T04:52:58;12.97;;;8.77;;
18046;SDS011;9148;51.454;13.862;2022-10-30T04:55:29;13.93;;;8.40;;
18046;SDS011;9148;51.454;13.862;2022-10-30T04:57:56;15.27;;;9.93;;
18046;SDS011;9148;51.454;13.862;2022-10-30T05:00:23;11.53;;;8.03;;
18046;SDS011;9148;51.454;13.862;2022-10-30T05:02:50;9.70;;;6.93;;
18046;SDS011;9148;51.454;13.862;2022-10-30T05:05:16;12.10;;;7.00;;
18046;SDS011;9148;51.454;13.862;2022-10-30T05:07:42;10.57;;;6.40;;
18046;SDS011;9148;51.454;13.862;2022-10-30T05:10:10;10.07;;;6.20;;
18046;SDS011;9148;51.454;13.862;2022-10-30T05:12:38;13.07;;;7.47;;
18046;SDS011;9148;51.454;13.862;2022-10-30T05:15:08;12.33;;;7.73;;
18046;SDS011;9148;51.454;13.862;2022-10-30T05:17:34;12.77;;;7.07;;
18046;SDS011;9148;51.454;13.862;2022-10-30T05:20:00;11.90;;;5.97;;
18046;SDS011;9148;51.454;13.862;2022-10-30T05:22:26;8.17;;;6.13;;
18046;SDS011;9148;51.454;13.862;2022-10-30T05:24:51;4.93;;;4.40;;
18046;SDS011;9148;51.454;13.862;2022-10-30T05:27:17;9.17;;;5.60;;
18046;SDS011;9148;51.454;13.862;2022-10-30T05:29:43;9.90;;;6.80;;
18046;SDS011;9148;51.454;13.862;2022-10-30T05:32:08;5.73;;;4.00;;
18046;SDS011;9148;51.454;13.862;2022-10-30T05:34:34;8.40;;;5.60;;
18046;SDS011;9148;51.454;13.862;2022-10-30T05:36:59;12.10;;;4.90;;
18046;SDS011;9148;51.454;13.862;2022-10-30T05:39:25;8.50;;;5.60;;
18046;SDS011;9148;51.454;13.862;2022-10-30T05:41:52;6.83;;;5.80;;
18046;SDS011;9148;51.454;13.862;2022-10-30T05:44:17;11.43;;;6.30;;
18046;SDS011;9148;51.454;13.862;2022-10-30T05:46:43;8.43;;;5.07;;
18046;SDS011;9148;51.454;13.862;2022-10-30T05:49:08;8.57;;;5.53;;
18046;SDS011;9148;51.454;13.862;2022-10-30T05:51:34;12.13;;;6.07;;
18046;SDS011;9148;51.454;13.862;2022-10-30T05:54:00;7.70;;;5.07;;
18046;SDS011;9148;51.454;13.862;2022-10-30T05:56:25;10.20;;;5.67;;
18046;SDS011;9148;51.454;13.862;2022-10-30T05:58:51;9.57;;;4.93;;
18046;SDS011;9148;51.454;13.862;2022-10-30T06:01:17;10.17;;;6.80;;
18046;SDS011;9148;51.454;13.862;2022-10-30T06:03:43;10.40;;;6.23;;
18046;SDS011;9148;51.454;13.862;2022-10-30T06:06:09;8.57;;;5.93;;
18046;SDS011;9148;51.454;13.862;2022-10-30T06:08:35;8.77;;;5.83;;
18046;SDS011;9148;51.454;13.862;2022-10-30T06:11:01;6.03;;;5.43;;
18046;SDS011;9148;51.454;13.862;2022-10-30T06:13:27;9.57;;;6.20;;
18046;SDS011;9148;51.454;13.862;2022-10-30T06:15:53;11.23;;;6.47;;
18046;SDS011;9148;51.454;13.862;2022-10-30T06:18:20;9.30;;;6.83;;
18046;SDS011;9148;51.454;13.862;2022-10-30T06:20:47;11.60;;;7.47;;
18046;SDS011;9148;51.454;13.862;2022-10-30T06:23:13;14.20;;;7.43;;
18046;SDS011;9148;51.454;13.862;2022-10-30T06:25:39;6.70;;;5.53;;
18046;SDS011;9148;51.454;13.862;2022-10-30T06:28:05;10.50;;;4.97;;
18046;SDS011;9148;51.454;13.862;2022-10-30T06:30:31;14.10;;;6.07;;
18046;SDS011;9148;51.454;13.862;2022-10-30T06:32:58;9.17;;;5.20;;
18046;SDS011;9148;51.454;13.862;2022-10-30T06:35:25;8.97;;;5.63;;
18046;SDS011;9148;51.454;13.862;2022-10-30T06:37:51;7.63;;;5.53;;
18046;SDS011;9148;51.454;13.862;2022-10-30T06:40:18;10.00;;;6.37;;
18046;SDS011;9148;51.454;13.862;2022-10-30T06:42:44;7.70;;;6.77;;
18046;SDS011;9148;51.454;13.862;2022-10-30T06:45:12;9.93;;;6.33;;
18046;SDS011;9148;51.454;13.862;2022-10-30T06:47:39;8.83;;;6.40;;
18046;SDS011;9148;51.454;13.862;2022-10-30T06:50:06;14.10;;;6.77;;
18046;SDS011;9148;51.454;13.862;2022-10-30T06:52:34;8.47;;;6.23;;
18046;SDS011;9148;51.454;13.862;2022-10-30T06:55:00;10.43;;;6.77;;
18046;SDS011;9148;51.454;13.862;2022-10-30T06:57:26;10.33;;;7.00;;
18046;SDS011;9148;51.454;13.862;2022-10-30T06:59:52;11.53;;;6.43;;
18046;SDS011;9148;51.454;13.862;2022-10-30T07:02:18;7.77;;;6.17;;
18046;SDS011;9148;51.454;13.862;2022-10-30T07:04:43;11.83;;;6.80;;
18046;SDS011;9148;51.454;13.862;2022-10-30T07:07:12;6.27;;;5.10;;
18046;SDS011;9148;51.454;13.862;2022-10-30T07:09:39;8.50;;;5.40;;
18046;SDS011;9148;51.454;13.862;2022-10-30T07:12:05;8.17;;;5.27;;
18046;SDS011;9148;51.454;13.862;2022-10-30T07:14:31;6.17;;;4.77;;
18046;SDS011;9148;51.454;13.862;2022-10-30T07:16:57;11.10;;;5.67;;
18046;SDS011;9148;51.454;13.862;2022-10-30T07:19:23;10.07;;;5.90;;
18046;SDS011;9148;51.454;13.862;2022-10-30T07:21:49;11.23;;;5.80;;
18046;SDS011;9148;51.454;13.862;2022-10-30T07:24:14;8.13;;;4.97;;
18046;SDS011;9148;51.454;13.862;2022-10-30T07:26:40;8.70;;;5.80;;
18046;SDS011;9148;51.454;13.862;2022-10-30T07:29:06;7.33;;;5.63;;
18046;SDS011;9148;51.454;13.862;2022-10-30T07:31:32;10.57;;;5.27;;
18046;SDS011;9148;51.454;13.862;2022-10-30T07:33:58;5.57;;;4.93;;
18046;SDS011;9148;51.454;13.862;2022-10-30T07:36:23;6.80;;;4.43;;
18046;SDS011;9148;51.454;13.862;2022-10-30T07:38:49;7.47;;;5.37;;
18046;SDS011;9148;51.454;13.862;2022-10-30T07:41:16;11.50;;;5.40;;
18046;SDS011;9148;51.454;13.862;2022-10-30T07:43:43;6.53;;;4.30;;
18046;SDS011;9148;51.454;13.862;2022-10-30T07:46:09;7.07;;;3.50;;
18046;SDS011;9148;51.454;13.862;2022-10-30T07:48:35;7.17;;;4.17;;
18046;SDS011;9148;51.454;13.862;2022-10-30T07:51:01;5.17;;;4.60;;
18046;SDS011;9148;51.454;13.862;2022-10-30T07:53:27;5.77;;;3.70;;
18046;SDS011;9148;51.454;13.862;2022-10-30T07:55:53;5.37;;;4.07;;
18046;SDS011;9148;51.454;13.862;2022-10-30T07:58:19;5.78;;;3.75;;
18046;SDS011;9148;51.454;13.862;2022-10-30T08:00:45;7.70;;;4.55;;
18046;SDS011;9148;51.454;13.862;2022-10-30T08:03:11;6.53;;;4.78;;
18046;SDS011;9148;51.454;13.862;2022-10-30T08:05:37;4.75;;;2.97;;
18046;SDS011;9148;51.454;13.862;2022-10-30T08:08:03;4.30;;;3.75;;
18046;SDS011;9148;51.454;13.862;2022-10-30T08:10:29;4.35;;;3.67;;
18046;SDS011;9148;51.454;13.862;2022-10-30T08:12:54;4.68;;;3.65;;
18046;SDS011;9148;51.454;13.862;2022-10-30T08:15:20;4.53;;;3.22;;
18046;SDS011;9148;51.454;13.862;2022-10-30T08:17:48;3.67;;;3.40;;
18046;SDS011;9148;51.454;13.862;2022-10-30T08:20:15;4.43;;;3.33;;
18046;SDS011;9148;51.454;13.862;2022-10-30T08:22:47;4.25;;;3.35;;
18046;SDS011;9148;51.454;13.862;2022-10-30T08:25:17;4.78;;;3.85;;
18046;SDS011;9148;51.454;13.862;2022-10-30T08:27:49;4.63;;;2.80;;
18046;SDS011;9148;51.454;13.862;2022-10-30T08:30:39;3.74;;;3.01;;
18046;SDS011;9148;51.454;13.862;2022-10-30T08:33:06;6.50;;;3.72;;
18046;SDS011;9148;51.454;13.862;2022-10-30T08:35:37;2.88;;;2.45;;
18046;SDS011;9148;51.454;13.862;2022-10-30T08:38:03;4.18;;;3.35;;
18046;SDS011;9148;51.454;13.862;2022-10-30T08:40:28;4.82;;;3.13;;
18046;SDS011;9148;51.454;13.862;2022-10-30T08:42:55;3.70;;;2.95;;
18046;SDS011;9148;51.454;13.862;2022-10-30T08:45:22;2.22;;;1.92;;
18046;SDS011;9148;51.454;13.862;2022-10-30T08:47:55;4.72;;;3.10;;
18046;SDS011;9148;51.454;13.862;2022-10-30T08:50:22;2.90;;;2.60;;
18046;SDS011;9148;51.454;13.862;2022-10-30T08:52:48;2.75;;;2.03;;
18046;SDS011;9148;51.454;13.862;2022-10-30T08:55:14;3.15;;;2.85;;
18046;SDS011;9148;51.454;13.862;2022-10-30T08:57:39;3.92;;;2.25;;
18046;SDS011;9148;51.454;13.862;2022-10-30T09:00:05;2.50;;;1.98;;
18046;SDS011;9148;51.454;13.862;2022-10-30T09:02:32;2.88;;;2.30;;
18046;SDS011;9148;51.454;13.862;2022-10-30T09:04:59;4.70;;;2.20;;
18046;SDS011;9148;51.454;13.862;2022-10-30T09:07:25;4.70;;;2.72;;
18046;SDS011;9148;51.454;13.862;2022-10-30T09:09:50;4.47;;;2.40;;
18046;SDS011;9148;51.454;13.862;2022-10-30T09:12:16;5.88;;;2.42;;
18046;SDS011;9148;51.454;13.862;2022-10-30T09:14:42;8.15;;;2.33;;
18046;SDS011;9148;51.454;13.862;2022-10-30T09:17:07;4.30;;;2.33;;
18046;SDS011;9148;51.454;13.862;2022-10-30T09:19:33;2.22;;;1.90;;
18046;SDS011;9148;51.454;13.862;2022-10-30T09:21:59;2.85;;;2.00;;
18046;SDS011;9148;51.454;13.862;2022-10-30T09:24:25;3.88;;;1.75;;
18046;SDS011;9148;51.454;13.862;2022-10-30T09:26:50;6.47;;;1.85;;
18046;SDS011;9148;51.454;13.862;2022-10-30T09:29:16;4.25;;;2.47;;
18046;SDS011;9148;51.454;13.862;2022-10-30T09:31:42;6.70;;;2.38;;
18046;SDS011;9148;51.454;13.862;2022-10-30T09:34:07;3.60;;;2.30;;
18046;SDS011;9148;51.454;13.862;2022-10-30T09:36:33;4.93;;;2.42;;
18046;SDS011;9148;51.454;13.862;2022-10-30T09:38:59;4.90;;;1.63;;
18046;SDS011;9148;51.454;13.862;2022-10-30T09:41:29;2.67;;;1.60;;
18046;SDS011;9148;51.454;13.862;2022-10-30T09:44:15;3.45;;;2.10;;
18046;SDS011;9148;51.454;13.862;2022-10-30T09:55:50;4.90;;;1.80;;
18046;SDS011;9148;51.454;13.862;2022-10-30T09:58:37;10.82;;;2.90;;
18046;SDS011;9148;51.454;13.862;2022-10-30T10:01:31;2.55;;;1.70;;
18046;SDS011;9148;51.454;13.862;2022-10-30T10:04:18;2.67;;;1.75;;
18046;SDS011;9148;51.454;13.862;2022-10-30T10:06:53;1.88;;;1.63;;
18046;SDS011;9148;51.454;13.862;2022-10-30T10:09:26;3.28;;;2.05;;
18046;SDS011;9148;51.454;13.862;2022-10-30T10:12:12;7.25;;;1.88;;
18046;SDS011;9148;51.454;13.862;2022-10-30T10:14:51;4.80;;;1.85;;
18046;SDS011;9148;51.454;13.862;2022-10-30T10:17:29;3.25;;;1.52;;
18046;SDS011;9148;51.454;13.862;2022-10-30T10:19:59;4.60;;;1.60;;
18046;SDS011;9148;51.454;13.862;2022-10-30T10:22:38;2.78;;;1.60;;
18046;SDS011;9148;51.454;13.862;2022-10-30T10:25:14;4.00;;;1.73;;
18046;SDS011;9148;51.454;13.862;2022-10-30T10:30:21;3.70;;;1.73;;
18046;SDS011;9148;51.454;13.862;2022-10-30T10:38:32;2.50;;;1.50;;
18046;SDS011;9148;51.454;13.862;2022-10-30T10:46:59;2.92;;;1.55;;
18046;SDS011;9148;51.454;13.862;2022-10-30T10:52:55;0.80;;;0.80;;
18046;SDS011;9148;51.454;13.862;2022-10-30T10:55:52;1.52;;;1.30;;
18046;SDS011;9148;51.454;13.862;2022-10-30T10:58:26;4.00;;;1.85;;
18046;SDS011;9148;51.454;13.862;2022-10-30T11:01:13;2.17;;;1.90;;
18046;SDS011;9148;51.454;13.862;2022-10-30T11:03:59;4.03;;;1.95;;
18046;SDS011;9148;51.454;13.862;2022-10-30T11:06:34;2.72;;;1.55;;
18046;SDS011;9148;51.454;13.862;2022-10-30T11:11:43;4.68;;;1.45;;
18046;SDS011;9148;51.454;13.862;2022-10-30T11:14:17;7.30;;;1.77;;
18046;SDS011;9148;51.454;13.862;2022-10-30T11:19:51;3.72;;;2.25;;
18046;SDS011;9148;51.454;13.862;2022-10-30T11:22:30;7.10;;;1.50;;
18046;SDS011;9148;51.454;13.862;2022-10-30T11:27:58;1.92;;;1.20;;
18046;SDS011;9148;51.454;13.862;2022-10-30T11:30:26;3.00;;;1.33;;
18046;SDS011;9148;51.454;13.862;2022-10-30T11:32:56;5.57;;;1.77;;
18046;SDS011;9148;51.454;13.862;2022-10-30T11:35:23;2.97;;;1.88;;
18046;SDS011;9148;51.454;13.862;2022-10-30T11:37:50;4.18;;;2.08;;
18046;SDS011;9148;51.454;13.862;2022-10-30T11:40:37;2.63;;;1.90;;
18046;SDS011;9148;51.454;13.862;2022-10-30T11:43:04;1.75;;;1.38;;
18046;SDS011;9148;51.454;13.862;2022-10-30T11:45:32;4.68;;;2.03;;
18046;SDS011;9148;51.454;13.862;2022-10-30T11:48:03;4.40;;;1.55;;
18046;SDS011;9148;51.454;13.862;2022-10-30T11:50:44;2.83;;;1.60;;
18046;SDS011;9148;51.454;13.862;2022-10-30T11:53:24;7.65;;;2.13;;
18046;SDS011;9148;51.454;13.862;2022-10-30T11:55:55;2.60;;;1.88;;
18046;SDS011;9148;51.454;13.862;2022-10-30T11:58:28;2.90;;;1.77;;
18046;SDS011;9148;51.454;13.862;2022-10-30T12:01:12;3.42;;;1.38;;
18046;SDS011;9148;51.454;13.862;2022-10-30T12:03:48;1.77;;;1.40;;
18046;SDS011;9148;51.454;13.862;2022-10-30T12:11:40;2.83;;;1.60;;
18046;SDS011;9148;51.454;13.862;2022-10-30T12:14:19;6.93;;;1.60;;
18046;SDS011;9148;51.454;13.862;2022-10-30T12:16:48;1.90;;;1.40;;
18046;SDS011;9148;51.454;13.862;2022-10-30T12:19:17;2.05;;;1.40;;
18046;SDS011;9148;51.454;13.862;2022-10-30T12:21:50;1.70;;;1.50;;
18046;SDS011;9148;51.454;13.862;2022-10-30T12:24:20;2.25;;;1.63;;
18046;SDS011;9148;51.454;13.862;2022-10-30T12:27:00;2.03;;;1.08;;
18046;SDS011;9148;51.454;13.862;2022-10-30T12:29:56;1.48;;;1.25;;
18046;SDS011;9148;51.454;13.862;2022-10-30T12:32:51;2.88;;;1.58;;
18046;SDS011;9148;51.454;13.862;2022-10-30T12:41:19;2.35;;;1.52;;
18046;SDS011;9148;51.454;13.862;2022-10-30T12:49:53;6.57;;;1.75;;
18046;SDS011;9148;51.454;13.862;2022-10-30T12:52:40;1.38;;;1.27;;
18046;SDS011;9148;51.454;13.862;2022-10-30T12:55:25;4.13;;;1.40;;
18046;SDS011;9148;51.454;13.862;2022-10-30T13:04:17;6.85;;;2.05;;
18046;SDS011;9148;51.454;13.862;2022-10-30T13:12:51;2.92;;;1.20;;
18046;SDS011;9148;51.454;13.862;2022-10-30T13:15:27;4.10;;;2.03;;
18046;SDS011;9148;51.454;13.862;2022-10-30T13:18:13;2.78;;;1.50;;
18046;SDS011;9148;51.454;13.862;2022-10-30T13:20:43;2.08;;;1.25;;
18046;SDS011;9148;51.454;13.862;2022-10-30T13:23:35;2.90;;;1.50;;
18046;SDS011;9148;51.454;13.862;2022-10-30T13:26:28;1.30;;;1.02;;
18046;SDS011;9148;51.454;13.862;2022-10-30T13:29:19;6.30;;;1.88;;
18046;SDS011;9148;51.454;13.862;2022-10-30T13:43:41;1.70;;;1.15;;
18046;SDS011;9148;51.454;13.862;2022-10-30T13:52:13;3.90;;;1.33;;
18046;SDS011;9148;51.454;13.862;2022-10-30T13:57:56;6.95;;;2.05;;
18046;SDS011;9148;51.454;13.862;2022-10-30T14:00:48;1.08;;;0.88;;
18046;SDS011;9148;51.454;13.862;2022-10-30T14:20:36;3.78;;;1.90;;
18046;SDS011;9148;51.454;13.862;2022-10-30T14:23:13;5.63;;;1.73;;
18046;SDS011;9148;51.454;13.862;2022-10-30T14:25:44;8.02;;;1.83;;
18046;SDS011;9148;51.454;13.862;2022-10-30T14:28:30;4.35;;;1.65;;
18046;SDS011;9148;51.454;13.862;2022-10-30T14:31:02;4.32;;;1.70;;
18046;SDS011;9148;51.454;13.862;2022-10-30T14:33:43;4.22;;;1.58;;
18046;SDS011;9148;51.454;13.862;2022-10-30T14:36:20;1.80;;;1.17;;
18046;SDS011;9148;51.454;13.862;2022-10-30T14:50:09;3.67;;;2.20;;
18046;SDS011;9148;51.454;13.862;2022-10-30T14:56:02;2.30;;;1.83;;
18046;SDS011;9148;51.454;13.862;2022-10-30T14:58:38;2.65;;;1.48;;
18046;SDS011;9148;51.454;13.862;2022-10-30T15:04:15;2.13;;;1.60;;
18046;SDS011;9148;51.454;13.862;2022-10-30T15:10:16;4.72;;;2.30;;
18046;SDS011;9148;51.454;13.862;2022-10-30T15:15:34;2.88;;;1.80;;
18046;SDS011;9148;51.454;13.862;2022-10-30T15:18:06;3.45;;;1.80;;
18046;SDS011;9148;51.454;13.862;2022-10-30T15:20:43;5.70;;;1.60;;
18046;SDS011;9148;51.454;13.862;2022-10-30T15:23:26;5.97;;;1.30;;
18046;SDS011;9148;51.454;13.862;2022-10-30T15:25:54;2.75;;;1.23;;
18046;SDS011;9148;51.454;13.862;2022-10-30T15:28:27;5.80;;;1.95;;
18046;SDS011;9148;51.454;13.862;2022-10-30T15:31:00;4.65;;;1.75;;
18046;SDS011;9148;51.454;13.862;2022-10-30T15:33:51;3.42;;;1.10;;
18046;SDS011;9148;51.454;13.862;2022-10-30T15:36:19;3.45;;;2.30;;
18046;SDS011;9148;51.454;13.862;2022-10-30T15:39:04;1.90;;;1.42;;
18046;SDS011;9148;51.454;13.862;2022-10-30T15:41:33;2.45;;;1.70;;
18046;SDS011;9148;51.454;13.862;2022-10-30T15:44:38;2.88;;;1.58;;
18046;SDS011;9148;51.454;13.862;2022-10-30T15:47:14;1.70;;;1.60;;
18046;SDS011;9148;51.454;13.862;2022-10-30T15:49:49;3.45;;;1.23;;
18046;SDS011;9148;51.454;13.862;2022-10-30T15:52:20;5.13;;;2.92;;
18046;SDS011;9148;51.454;13.862;2022-10-30T15:54:56;9.05;;;2.88;;
18046;SDS011;9148;51.454;13.862;2022-10-30T15:57:29;6.82;;;4.57;;
18046;SDS011;9148;51.454;13.862;2022-10-30T16:00:02;6.53;;;2.88;;
18046;SDS011;9148;51.454;13.862;2022-10-30T16:02:31;5.30;;;1.75;;
18046;SDS011;9148;51.454;13.862;2022-10-30T16:04:58;7.03;;;4.13;;
18046;SDS011;9148;51.454;13.862;2022-10-30T16:07:24;11.70;;;6.50;;
18046;SDS011;9148;51.454;13.862;2022-10-30T16:09:56;4.13;;;2.47;;
18046;SDS011;9148;51.454;13.862;2022-10-30T16:12:25;6.30;;;2.38;;
18046;SDS011;9148;51.454;13.862;2022-10-30T16:14:54;5.07;;;2.25;;
18046;SDS011;9148;51.454;13.862;2022-10-30T16:17:21;4.55;;;1.60;;
18046;SDS011;9148;51.454;13.862;2022-10-30T16:19:51;4.75;;;1.90;;
18046;SDS011;9148;51.454;13.862;2022-10-30T16:22:24;3.58;;;2.33;;
18046;SDS011;9148;51.454;13.862;2022-10-30T16:24:56;4.15;;;2.55;;
18046;SDS011;9148;51.454;13.862;2022-10-30T16:27:23;5.70;;;2.58;;
18046;SDS011;9148;51.454;13.862;2022-10-30T16:29:54;4.05;;;2.53;;
18046;SDS011;9148;51.454;13.862;2022-10-30T16:32:26;3.72;;;1.75;;
18046;SDS011;9148;51.454;13.862;2022-10-30T16:34:56;4.70;;;1.65;;
18046;SDS011;9148;51.454;13.862;2022-10-30T16:37:33;2.20;;;1.88;;
18046;SDS011;9148;51.454;13.862;2022-10-30T16:40:05;5.35;;;1.92;;
18046;SDS011;9148;51.454;13.862;2022-10-30T16:42:38;5.18;;;1.80;;
18046;SDS011;9148;51.454;13.862;2022-10-30T16:47:39;3.28;;;2.15;;
18046;SDS011;9148;51.454;13.862;2022-10-30T16:50:12;4.60;;;2.17;;
18046;SDS011;9148;51.454;13.862;2022-10-30T16:52:40;4.15;;;2.15;;
18046;SDS011;9148;51.454;13.862;2022-10-30T16:57:42;5.28;;;3.90;;
18046;SDS011;9148;51.454;13.862;2022-10-30T17:00:23;3.85;;;2.92;;
18046;SDS011;9148;51.454;13.862;2022-10-30T17:02:52;4.60;;;3.03;;
18046;SDS011;9148;51.454;13.862;2022-10-30T17:08:05;11.02;;;3.42;;
18046;SDS011;9148;51.454;13.862;2022-10-30T17:11:01;10.65;;;5.68;;
18046;SDS011;9148;51.454;13.862;2022-10-30T17:16:29;12.10;;;4.38;;
18046;SDS011;9148;51.454;13.862;2022-10-30T17:19:00;14.38;;;5.60;;
18046;SDS011;9148;51.454;13.862;2022-10-30T17:21:54;4.75;;;3.22;;
18046;SDS011;9148;51.454;13.862;2022-10-30T17:24:22;12.45;;;4.03;;
18046;SDS011;9148;51.454;13.862;2022-10-30T17:26:55;12.95;;;4.30;;
18046;SDS011;9148;51.454;13.862;2022-10-30T17:32:01;4.65;;;3.53;;
18046;SDS011;9148;51.454;13.862;2022-10-30T17:34:29;8.85;;;6.05;;
18046;SDS011;9148;51.454;13.862;2022-10-30T17:37:00;11.50;;;5.88;;
18046;SDS011;9148;51.454;13.862;2022-10-30T17:39:26;6.03;;;3.45;;